sensor_id;sensor_type;location;lat;lon;timestamp;pressure;altitude;pressure_sealevel;temperature;humidity
9521;BME280;4798;41.574;23.734;2022-10-29T00:01:05;96446.84;;;11.61;57.79
9521;BME280;4798;41.574;23.734;2022-10-29T00:03:35;96445.66;;;11.68;57.40
9521;BME280;4798;41.574;23.734;2022-10-29T00:06:05;96443.97;;;11.84;56.99
9521;BME280;4798;41.574;23.734;2022-10-29T00:08:35;96444.69;;;12.01;56.66
9521;BME280;4798;41.574;23.734;2022-10-29T00:11:06;96439.91;;;12.03;56.40
9521;BME280;4798;41.574;23.734;2022-10-29T00:13:36;96437.97;;;11.93;56.67
9521;BME280;4798;41.574;23.734;2022-10-29T00:16:05;96439.25;;;11.91;56.48
9521;BME280;4798;41.574;23.734;2022-10-29T00:18:34;96437.59;;;11.85;57.03
9521;BME280;4798;41.574;23.734;2022-10-29T00:21:04;96437.97;;;11.93;56.55
9521;BME280;4798;41.574;23.734;2022-10-29T00:23:33;96431.41;;;12.01;56.50
9521;BME280;4798;41.574;23.734;2022-10-29T00:26:02;96440.34;;;11.95;56.51
9521;BME280;4798;41.574;23.734;2022-10-29T00:28:32;96445.44;;;11.96;56.76
9521;BME280;4798;41.574;23.734;2022-10-29T00:31:03;96453.84;;;11.07;59.44
9521;BME280;4798;41.574;23.734;2022-10-29T00:33:32;96462.00;;;10.67;61.26
9521;BME280;4798;41.574;23.734;2022-10-29T00:36:02;96452.28;;;10.89;59.89
9521;BME280;4798;41.574;23.734;2022-10-29T00:38:32;96375.38;;;10.06;62.00
9521;BME280;4798;41.574;23.734;2022-10-29T00:41:01;96450.97;;;10.92;60.89
9521;BME280;4798;41.574;23.734;2022-10-29T00:43:34;96448.63;;;11.33;60.09
9521;BME280;4798;41.574;23.734;2022-10-29T00:46:05;96449.16;;;11.14;60.70
9521;BME280;4798;41.574;23.734;2022-10-29T00:48:38;96443.25;;;11.28;59.48
9521;BME280;4798;41.574;23.734;2022-10-29T00:51:08;96440.44;;;11.35;58.97
9521;BME280;4798;41.574;23.734;2022-10-29T00:53:41;96434.00;;;11.31;59.99
9521;BME280;4798;41.574;23.734;2022-10-29T00:56:10;96431.59;;;11.29;59.38
9521;BME280;4798;41.574;23.734;2022-10-29T00:58:41;96428.94;;;11.29;59.11
9521;BME280;4798;41.574;23.734;2022-10-29T01:01:09;96419.00;;;11.41;58.02
9521;BME280;4798;41.574;23.734;2022-10-29T01:03:38;96418.13;;;11.58;58.22
9521;BME280;4798;41.574;23.734;2022-10-29T01:06:07;96416.59;;;11.62;58.35
9521;BME280;4798;41.574;23.734;2022-10-29T01:08:35;96414.69;;;11.57;58.56
9521;BME280;4798;41.574;23.734;2022-10-29T01:11:14;96412.94;;;11.46;59.07
9521;BME280;4798;41.574;23.734;2022-10-29T01:14:01;96410.78;;;11.21;59.18
9521;BME280;4798;41.574;23.734;2022-10-29T01:16:39;96409.81;;;10.89;60.97
9521;BME280;4798;41.574;23.734;2022-10-29T01:19:14;96409.50;;;11.24;59.94
9521;BME280;4798;41.574;23.734;2022-10-29T01:21:52;96393.53;;;11.40;59.59
9521;BME280;4798;41.574;23.734;2022-10-29T01:24:41;96379.78;;;11.48;59.06
9521;BME280;4798;41.574;23.734;2022-10-29T01:30:32;96412.81;;;10.76;61.80
9521;BME280;4798;41.574;23.734;2022-10-29T01:33:16;96415.66;;;10.36;63.87
9521;BME280;4798;41.574;23.734;2022-10-29T01:35:54;96410.66;;;10.23;63.51
9521;BME280;4798;41.574;23.734;2022-10-29T01:38:33;96419.06;;;10.03;64.93
9521;BME280;4798;41.574;23.734;2022-10-29T01:41:07;96350.88;;;9.37;66.12
9521;BME280;4798;41.574;23.734;2022-10-29T01:43:43;96412.72;;;9.48;66.71
9521;BME280;4798;41.574;23.734;2022-10-29T01:46:17;96407.03;;;10.12;64.81
9521;BME280;4798;41.574;23.734;2022-10-29T01:48:52;96402.81;;;10.00;65.31
9521;BME280;4798;41.574;23.734;2022-10-29T01:51:25;96400.81;;;10.52;63.30
9521;BME280;4798;41.574;23.734;2022-10-29T01:53:57;96394.34;;;10.14;64.33
9521;BME280;4798;41.574;23.734;2022-10-29T01:56:26;96390.09;;;10.30;63.52
9521;BME280;4798;41.574;23.734;2022-10-29T01:58:56;96392.69;;;10.42;63.38
9521;BME280;4798;41.574;23.734;2022-10-29T02:01:37;96394.44;;;10.19;63.88
9521;BME280;4798;41.574;23.734;2022-10-29T02:04:24;96382.88;;;10.26;63.41
9521;BME280;4798;41.574;23.734;2022-10-29T02:06:59;96372.03;;;10.27;62.72
9521;BME280;4798;41.574;23.734;2022-10-29T02:09:32;96379.38;;;10.37;62.84
9521;BME280;4798;41.574;23.734;2022-10-29T02:12:07;96374.63;;;10.39;63.10
9521;BME280;4798;41.574;23.734;2022-10-29T02:14:41;96377.13;;;9.84;64.11
9521;BME280;4798;41.574;23.734;2022-10-29T02:17:12;96379.78;;;9.55;65.67
9521;BME280;4798;41.574;23.734;2022-10-29T02:19:42;96378.97;;;10.00;64.86
9521;BME280;4798;41.574;23.734;2022-10-29T02:22:10;96201.00;;;8.58;66.17
9521;BME280;4798;41.574;23.734;2022-10-29T02:24:38;96374.25;;;9.85;65.14
9521;BME280;4798;41.574;23.734;2022-10-29T02:27:06;96383.16;;;10.24;64.15
9521;BME280;4798;41.574;23.734;2022-10-29T02:29:35;96376.47;;;10.22;63.90
9521;BME280;4798;41.574;23.734;2022-10-29T02:32:03;96385.84;;;9.84;65.00
9521;BME280;4798;41.574;23.734;2022-10-29T02:34:32;96377.25;;;10.22;63.63
9521;BME280;4798;41.574;23.734;2022-10-29T02:37:02;96381.50;;;10.06;64.97
9521;BME280;4798;41.574;23.734;2022-10-29T02:39:30;96386.84;;;10.40;63.65
9521;BME280;4798;41.574;23.734;2022-10-29T02:41:58;96319.34;;;9.97;63.76
9521;BME280;4798;41.574;23.734;2022-10-29T02:44:27;96369.00;;;10.35;63.92
9521;BME280;4798;41.574;23.734;2022-10-29T02:46:55;96379.50;;;10.63;62.24
9521;BME280;4798;41.574;23.734;2022-10-29T02:49:23;96377.50;;;10.54;63.19
9521;BME280;4798;41.574;23.734;2022-10-29T02:51:52;96382.00;;;10.53;63.08
9521;BME280;4798;41.574;23.734;2022-10-29T02:54:21;96367.06;;;10.47;63.30
9521;BME280;4798;41.574;23.734;2022-10-29T02:56:49;96370.44;;;10.59;62.51
9521;BME280;4798;41.574;23.734;2022-10-29T02:59:18;96374.09;;;10.75;62.06
9521;BME280;4798;41.574;23.734;2022-10-29T03:01:46;96368.94;;;10.85;61.59
9521;BME280;4798;41.574;23.734;2022-10-29T03:04:14;96381.00;;;9.93;64.79
9521;BME280;4798;41.574;23.734;2022-10-29T03:06:43;96367.84;;;10.64;63.20
9521;BME280;4798;41.574;23.734;2022-10-29T03:09:11;96370.03;;;10.89;61.64
9521;BME280;4798;41.574;23.734;2022-10-29T03:11:40;96374.56;;;11.10;60.72
9521;BME280;4798;41.574;23.734;2022-10-29T03:14:09;96375.13;;;11.12;60.71
9521;BME280;4798;41.574;23.734;2022-10-29T03:16:37;96354.13;;;10.89;60.78
9521;BME280;4798;41.574;23.734;2022-10-29T03:19:05;96374.81;;;10.70;62.05
9521;BME280;4798;41.574;23.734;2022-10-29T03:21:34;96373.44;;;10.84;61.88
9521;BME280;4798;41.574;23.734;2022-10-29T03:24:02;96368.13;;;10.84;61.43
9521;BME280;4798;41.574;23.734;2022-10-29T03:26:31;96366.09;;;10.70;61.87
9521;BME280;4798;41.574;23.734;2022-10-29T03:29:03;96371.41;;;10.92;61.62
9521;BME280;4798;41.574;23.734;2022-10-29T03:31:31;96375.22;;;10.79;62.12
9521;BME280;4798;41.574;23.734;2022-10-29T03:33:59;96365.34;;;10.96;60.88
9521;BME280;4798;41.574;23.734;2022-10-29T03:36:28;96378.06;;;10.72;62.18
9521;BME280;4798;41.574;23.734;2022-10-29T03:38:56;96369.81;;;10.36;63.31
9521;BME280;4798;41.574;23.734;2022-10-29T03:41:24;96374.59;;;10.05;64.26
9521;BME280;4798;41.574;23.734;2022-10-29T03:43:52;96379.31;;;10.03;64.79
9521;BME280;4798;41.574;23.734;2022-10-29T03:46:27;96373.25;;;10.19;63.45
9521;BME280;4798;41.574;23.734;2022-10-29T03:48:55;96376.41;;;10.16;63.40
9521;BME280;4798;41.574;23.734;2022-10-29T03:51:23;96373.75;;;9.88;64.87
9521;BME280;4798;41.574;23.734;2022-10-29T03:53:52;96374.22;;;9.40;66.21
9521;BME280;4798;41.574;23.734;2022-10-29T03:56:20;96378.97;;;9.83;64.85
9521;BME280;4798;41.574;23.734;2022-10-29T03:58:48;96386.75;;;9.90;64.64
9521;BME280;4798;41.574;23.734;2022-10-29T04:01:16;96371.28;;;9.98;64.32
9521;BME280;4798;41.574;23.734;2022-10-29T04:03:46;96371.03;;;10.00;64.14
9521;BME280;4798;41.574;23.734;2022-10-29T04:06:14;96371.44;;;9.92;64.44
9521;BME280;4798;41.574;23.734;2022-10-29T04:08:44;96382.69;;;9.99;64.73
9521;BME280;4798;41.574;23.734;2022-10-29T04:11:12;96382.09;;;9.80;64.80
9521;BME280;4798;41.574;23.734;2022-10-29T04:13:41;96378.16;;;9.66;65.12
9521;BME280;4798;41.574;23.734;2022-10-29T04:16:09;96313.03;;;8.57;68.30
9521;BME280;4798;41.574;23.734;2022-10-29T04:18:37;96398.44;;;9.09;69.52
9521;BME280;4798;41.574;23.734;2022-10-29T04:21:07;96387.16;;;9.14;69.74
9521;BME280;4798;41.574;23.734;2022-10-29T04:23:56;96393.97;;;8.98;70.45
9521;BME280;4798;41.574;23.734;2022-10-29T04:26:44;96393.09;;;8.92;70.70
9521;BME280;4798;41.574;23.734;2022-10-29T04:29:34;96395.69;;;9.16;69.25
9521;BME280;4798;41.574;23.734;2022-10-29T04:32:02;96392.69;;;9.12;69.49
9521;BME280;4798;41.574;23.734;2022-10-29T04:34:31;96395.25;;;8.84;70.78
9521;BME280;4798;41.574;23.734;2022-10-29T04:37:00;96396.91;;;8.62;72.04
9521;BME280;4798;41.574;23.734;2022-10-29T04:39:28;96386.31;;;8.85;71.70
9521;BME280;4798;41.574;23.734;2022-10-29T04:41:57;96394.22;;;8.97;70.31
9521;BME280;4798;41.574;23.734;2022-10-29T04:44:25;96396.41;;;9.00;70.41
9521;BME280;4798;41.574;23.734;2022-10-29T04:46:53;96391.56;;;8.97;70.46
9521;BME280;4798;41.574;23.734;2022-10-29T04:49:22;96388.00;;;9.03;70.20
9521;BME280;4798;41.574;23.734;2022-10-29T04:51:50;96386.50;;;9.07;70.21
9521;BME280;4798;41.574;23.734;2022-10-29T04:54:20;96388.88;;;9.20;69.37
9521;BME280;4798;41.574;23.734;2022-10-29T04:56:48;96387.66;;;9.11;69.74
9521;BME280;4798;41.574;23.734;2022-10-29T04:59:16;96387.84;;;9.21;69.37
9521;BME280;4798;41.574;23.734;2022-10-29T05:01:45;96381.63;;;9.27;68.59
9521;BME280;4798;41.574;23.734;2022-10-29T05:04:13;96387.88;;;9.09;68.89
9521;BME280;4798;41.574;23.734;2022-10-29T05:06:41;96392.13;;;8.99;69.94
9521;BME280;4798;41.574;23.734;2022-10-29T05:09:09;96393.09;;;8.92;70.53
9521;BME280;4798;41.574;23.734;2022-10-29T05:11:39;96404.34;;;8.53;73.90
9521;BME280;4798;41.574;23.734;2022-10-29T05:14:07;96402.28;;;8.78;73.40
9521;BME280;4798;41.574;23.734;2022-10-29T05:16:36;96401.84;;;8.70;73.04
9521;BME280;4798;41.574;23.734;2022-10-29T05:19:04;96411.16;;;8.72;73.31
9521;BME280;4798;41.574;23.734;2022-10-29T05:21:32;96409.63;;;9.00;71.83
9521;BME280;4798;41.574;23.734;2022-10-29T05:24:01;96428.59;;;8.97;71.18
9521;BME280;4798;41.574;23.734;2022-10-29T05:26:29;96419.31;;;8.82;72.39
9521;BME280;4798;41.574;23.734;2022-10-29T05:28:59;96413.56;;;9.37;69.99
9521;BME280;4798;41.574;23.734;2022-10-29T05:31:27;96403.53;;;9.79;67.73
9521;BME280;4798;41.574;23.734;2022-10-29T05:33:56;96408.50;;;10.20;67.27
9521;BME280;4798;41.574;23.734;2022-10-29T05:36:24;96394.00;;;10.11;66.16
9521;BME280;4798;41.574;23.734;2022-10-29T05:38:52;96403.16;;;10.87;64.10
9521;BME280;4798;41.574;23.734;2022-10-29T05:41:21;96400.50;;;10.87;63.79
9521;BME280;4798;41.574;23.734;2022-10-29T05:43:49;96388.88;;;10.71;64.49
9521;BME280;4798;41.574;23.734;2022-10-29T05:46:19;96395.47;;;10.85;63.97
9521;BME280;4798;41.574;23.734;2022-10-29T05:48:47;96393.88;;;11.27;62.74
9521;BME280;4798;41.574;23.734;2022-10-29T05:51:15;96382.94;;;11.24;63.08
9521;BME280;4798;41.574;23.734;2022-10-29T05:53:44;96400.44;;;11.90;60.97
9521;BME280;4798;41.574;23.734;2022-10-29T05:56:12;96409.16;;;12.12;61.04
9521;BME280;4798;41.574;23.734;2022-10-29T05:58:40;96407.22;;;12.29;60.64
9521;BME280;4798;41.574;23.734;2022-10-29T06:01:09;96404.91;;;12.74;59.17
9521;BME280;4798;41.574;23.734;2022-10-29T06:03:39;96411.81;;;13.12;58.26
9521;BME280;4798;41.574;23.734;2022-10-29T06:06:08;96407.66;;;13.36;57.29
9521;BME280;4798;41.574;23.734;2022-10-29T06:08:36;96419.50;;;13.61;56.39
9521;BME280;4798;41.574;23.734;2022-10-29T06:11:04;96420.16;;;14.13;54.79
9521;BME280;4798;41.574;23.734;2022-10-29T06:13:33;96417.22;;;14.20;54.90
9521;BME280;4798;41.574;23.734;2022-10-29T06:16:01;96335.63;;;13.88;54.35
9521;BME280;4798;41.574;23.734;2022-10-29T06:18:29;96423.69;;;14.64;53.90
9521;BME280;4798;41.574;23.734;2022-10-29T06:21:00;96416.22;;;14.66;53.13
9521;BME280;4798;41.574;23.734;2022-10-29T06:23:28;96400.13;;;15.16;52.40
9521;BME280;4798;41.574;23.734;2022-10-29T06:25:58;96399.84;;;15.08;52.66
9521;BME280;4798;41.574;23.734;2022-10-29T06:28:27;96404.47;;;14.72;52.78
9521;BME280;4798;41.574;23.734;2022-10-29T06:31:00;96404.16;;;14.99;52.27
9521;BME280;4798;41.574;23.734;2022-10-29T06:33:28;96403.13;;;14.75;52.17
9521;BME280;4798;41.574;23.734;2022-10-29T06:35:59;96401.00;;;14.82;52.08
9521;BME280;4798;41.574;23.734;2022-10-29T06:38:27;96399.06;;;15.12;51.42
9521;BME280;4798;41.574;23.734;2022-10-29T06:40:55;96400.19;;;14.81;51.41
9521;BME280;4798;41.574;23.734;2022-10-29T06:43:24;96413.81;;;14.44;52.19
9521;BME280;4798;41.574;23.734;2022-10-29T06:45:52;96407.09;;;15.07;51.56
9521;BME280;4798;41.574;23.734;2022-10-29T06:48:21;96410.84;;;14.91;51.64
9521;BME280;4798;41.574;23.734;2022-10-29T06:50:50;96415.69;;;14.59;52.05
9521;BME280;4798;41.574;23.734;2022-10-29T06:53:20;96413.44;;;15.21;51.30
9521;BME280;4798;41.574;23.734;2022-10-29T06:55:48;96411.75;;;15.61;50.63
9521;BME280;4798;41.574;23.734;2022-10-29T06:58:18;96402.09;;;15.65;50.68
9521;BME280;4798;41.574;23.734;2022-10-29T07:00:46;96407.94;;;16.60;49.05
9521;BME280;4798;41.574;23.734;2022-10-29T07:03:17;96383.00;;;16.93;48.00
9521;BME280;4798;41.574;23.734;2022-10-29T07:05:46;96399.25;;;17.30;47.30
9521;BME280;4798;41.574;23.734;2022-10-29T07:08:14;96399.34;;;17.67;46.60
9521;BME280;4798;41.574;23.734;2022-10-29T07:10:44;96390.00;;;18.39;45.65
9521;BME280;4798;41.574;23.734;2022-10-29T07:13:12;96388.56;;;18.47;44.88
9521;BME280;4798;41.574;23.734;2022-10-29T07:15:40;96387.03;;;18.41;44.93
9521;BME280;4798;41.574;23.734;2022-10-29T07:18:09;96383.50;;;18.78;44.55
9521;BME280;4798;41.574;23.734;2022-10-29T07:20:41;96391.34;;;19.07;43.80
9521;BME280;4798;41.574;23.734;2022-10-29T07:23:10;96378.19;;;19.19;44.32
9521;BME280;4798;41.574;23.734;2022-10-29T07:25:39;96381.84;;;19.55;43.26
9521;BME280;4798;41.574;23.734;2022-10-29T07:28:11;96379.84;;;19.60;42.06
9521;BME280;4798;41.574;23.734;2022-10-29T07:30:40;96379.03;;;20.09;41.62
9521;BME280;4798;41.574;23.734;2022-10-29T07:33:09;96374.81;;;19.81;41.52
9521;BME280;4798;41.574;23.734;2022-10-29T07:35:37;96373.59;;;20.59;50.67
9521;BME280;4798;41.574;23.734;2022-10-29T07:38:07;96363.47;;;20.20;43.16
9521;BME280;4798;41.574;23.734;2022-10-29T07:40:37;96362.44;;;20.30;41.60
9521;BME280;4798;41.574;23.734;2022-10-29T07:43:06;96364.06;;;20.53;46.15
9521;BME280;4798;41.574;23.734;2022-10-29T07:45:35;96356.41;;;20.46;41.82
9521;BME280;4798;41.574;23.734;2022-10-29T07:48:05;96351.78;;;21.78;43.20
9521;BME280;4798;41.574;23.734;2022-10-29T07:50:35;96362.72;;;21.25;41.15
9521;BME280;4798;41.574;23.734;2022-10-29T07:53:05;96337.16;;;21.14;42.28
9521;BME280;4798;41.574;23.734;2022-10-29T07:55:33;96349.94;;;22.30;41.43
9521;BME280;4798;41.574;23.734;2022-10-29T07:58:03;96347.88;;;22.10;39.68
9521;BME280;4798;41.574;23.734;2022-10-29T08:00:33;96332.03;;;22.98;38.73
9521;BME280;4798;41.574;23.734;2022-10-29T08:03:04;96332.63;;;22.65;38.27
9521;BME280;4798;41.574;23.734;2022-10-29T08:05:33;96336.34;;;23.45;40.09
9521;BME280;4798;41.574;23.734;2022-10-29T08:08:01;96334.25;;;23.80;37.96
9521;BME280;4798;41.574;23.734;2022-10-29T08:10:31;96315.41;;;23.63;37.54
9521;BME280;4798;41.574;23.734;2022-10-29T08:13:00;96322.25;;;23.60;38.77
9521;BME280;4798;41.574;23.734;2022-10-29T08:15:30;96333.19;;;23.93;38.53
9521;BME280;4798;41.574;23.734;2022-10-29T08:17:59;96325.84;;;22.97;37.40
9521;BME280;4798;41.574;23.734;2022-10-29T08:20:29;96321.75;;;23.29;36.49
9521;BME280;4798;41.574;23.734;2022-10-29T08:23:00;96308.56;;;23.57;36.76
9521;BME280;4798;41.574;23.734;2022-10-29T08:25:28;96311.31;;;23.77;36.55
9521;BME280;4798;41.574;23.734;2022-10-29T08:27:57;96303.00;;;23.82;35.44
9521;BME280;4798;41.574;23.734;2022-10-29T08:30:26;96314.81;;;25.78;35.15
9521;BME280;4798;41.574;23.734;2022-10-29T08:32:54;96307.94;;;25.80;35.04
9521;BME280;4798;41.574;23.734;2022-10-29T08:35:23;96303.31;;;24.76;33.72
9521;BME280;4798;41.574;23.734;2022-10-29T08:37:53;96297.63;;;25.01;33.63
9521;BME280;4798;41.574;23.734;2022-10-29T08:40:28;96283.72;;;24.91;33.95
9521;BME280;4798;41.574;23.734;2022-10-29T08:46:18;96283.19;;;25.21;32.94
9521;BME280;4798;41.574;23.734;2022-10-29T08:48:50;96276.50;;;25.55;33.01
9521;BME280;4798;41.574;23.734;2022-10-29T08:51:23;96270.69;;;25.93;31.86
9521;BME280;4798;41.574;23.734;2022-10-29T08:53:55;96265.44;;;26.00;31.93
9521;BME280;4798;41.574;23.734;2022-10-29T08:56:46;96196.34;;;24.85;32.09
9521;BME280;4798;41.574;23.734;2022-10-29T08:59:16;96239.19;;;24.92;32.65
9521;BME280;4798;41.574;23.734;2022-10-29T09:01:45;96258.66;;;25.54;32.43
9521;BME280;4798;41.574;23.734;2022-10-29T09:04:21;96249.19;;;26.71;31.60
9521;BME280;4798;41.574;23.734;2022-10-29T09:07:12;96215.94;;;26.78;30.90
9521;BME280;4798;41.574;23.734;2022-10-29T09:09:53;96243.78;;;26.43;31.46
9521;BME280;4798;41.574;23.734;2022-10-29T09:12:36;96238.31;;;27.02;30.63
9521;BME280;4798;41.574;23.734;2022-10-29T09:15:27;96229.06;;;27.38;31.04
9521;BME280;4798;41.574;23.734;2022-10-29T09:18:14;96231.53;;;26.65;30.86
9521;BME280;4798;41.574;23.734;2022-10-29T09:20:51;96234.22;;;28.32;28.93
9521;BME280;4798;41.574;23.734;2022-10-29T09:23:42;96223.47;;;28.62;30.30
9521;BME280;4798;41.574;23.734;2022-10-29T09:26:16;96217.41;;;27.92;29.35
9521;BME280;4798;41.574;23.734;2022-10-29T09:28:54;96207.19;;;28.04;29.73
9521;BME280;4798;41.574;23.734;2022-10-29T09:31:30;96157.31;;;27.85;29.87
9521;BME280;4798;41.574;23.734;2022-10-29T09:34:07;96207.44;;;27.80;29.81
9521;BME280;4798;41.574;23.734;2022-10-29T09:36:38;96198.94;;;28.01;30.37
9521;BME280;4798;41.574;23.734;2022-10-29T09:39:11;96184.03;;;28.78;29.02
9521;BME280;4798;41.574;23.734;2022-10-29T09:41:43;96189.34;;;28.49;29.33
9521;BME280;4798;41.574;23.734;2022-10-29T09:44:18;96146.59;;;28.56;29.49
9521;BME280;4798;41.574;23.734;2022-10-29T09:46:55;96184.63;;;28.91;28.32
9521;BME280;4798;41.574;23.734;2022-10-29T09:49:37;96130.34;;;28.18;29.54
9521;BME280;4798;41.574;23.734;2022-10-29T09:52:14;96166.78;;;28.97;28.75
9521;BME280;4798;41.574;23.734;2022-10-29T09:54:45;96168.25;;;29.99;28.26
9521;BME280;4798;41.574;23.734;2022-10-29T09:57:18;96157.00;;;31.36;27.32
9521;BME280;4798;41.574;23.734;2022-10-29T09:59:50;96129.75;;;31.68;25.83
9521;BME280;4798;41.574;23.734;2022-10-29T10:02:26;96149.22;;;30.47;26.72
9521;BME280;4798;41.574;23.734;2022-10-29T10:05:03;96152.50;;;29.60;27.12
9521;BME280;4798;41.574;23.734;2022-10-29T10:07:31;96140.28;;;30.16;26.96
9521;BME280;4798;41.574;23.734;2022-10-29T10:10:01;96110.16;;;28.90;27.18
9521;BME280;4798;41.574;23.734;2022-10-29T10:12:44;96132.78;;;30.06;26.56
9521;BME280;4798;41.574;23.734;2022-10-29T10:15:19;96123.25;;;31.21;25.66
9521;BME280;4798;41.574;23.734;2022-10-29T10:17:55;96120.94;;;31.30;25.47
9521;BME280;4798;41.574;23.734;2022-10-29T10:20:27;96109.06;;;31.81;25.67
9521;BME280;4798;41.574;23.734;2022-10-29T10:22:56;96046.94;;;30.58;25.33
9521;BME280;4798;41.574;23.734;2022-10-29T10:25:32;96102.72;;;30.94;26.50
9521;BME280;4798;41.574;23.734;2022-10-29T10:28:15;96104.78;;;29.83;27.38
9521;BME280;4798;41.574;23.734;2022-10-29T10:30:44;96094.78;;;30.78;25.63
9521;BME280;4798;41.574;23.734;2022-10-29T10:33:23;96101.09;;;30.86;25.15
9521;BME280;4798;41.574;23.734;2022-10-29T10:35:51;96086.53;;;31.36;24.57
9521;BME280;4798;41.574;23.734;2022-10-29T10:38:21;96074.81;;;31.43;24.63
9521;BME280;4798;41.574;23.734;2022-10-29T10:40:58;96073.50;;;30.58;25.34
9521;BME280;4798;41.574;23.734;2022-10-29T10:43:29;96073.50;;;30.17;25.60
9521;BME280;4798;41.574;23.734;2022-10-29T10:45:59;96060.16;;;31.97;23.78
9521;BME280;4798;41.574;23.734;2022-10-29T10:48:31;96023.19;;;30.26;24.00
9521;BME280;4798;41.574;23.734;2022-10-29T10:51:18;96062.09;;;30.08;24.80
9521;BME280;4798;41.574;23.734;2022-10-29T10:53:48;96056.44;;;29.57;24.83
9521;BME280;4798;41.574;23.734;2022-10-29T10:56:19;96043.16;;;31.46;23.99
9521;BME280;4798;41.574;23.734;2022-10-29T10:58:58;96043.63;;;33.38;22.62
9521;BME280;4798;41.574;23.734;2022-10-29T11:01:31;96039.06;;;32.50;23.46
9521;BME280;4798;41.574;23.734;2022-10-29T11:04:10;96035.75;;;31.60;24.06
9521;BME280;4798;41.574;23.734;2022-10-29T11:06:42;96027.09;;;31.48;23.31
9521;BME280;4798;41.574;23.734;2022-10-29T11:09:19;96024.94;;;32.84;22.93
9521;BME280;4798;41.574;23.734;2022-10-29T11:11:53;96025.19;;;33.35;21.58
9521;BME280;4798;41.574;23.734;2022-10-29T11:14:29;96021.28;;;33.36;21.91
9521;BME280;4798;41.574;23.734;2022-10-29T11:17:01;96019.78;;;33.14;22.46
9521;BME280;4798;41.574;23.734;2022-10-29T11:19:34;96009.19;;;33.02;23.11
9521;BME280;4798;41.574;23.734;2022-10-29T11:22:11;95998.50;;;34.12;20.82
9521;BME280;4798;41.574;23.734;2022-10-29T11:24:48;96000.16;;;33.12;21.19
9521;BME280;4798;41.574;23.734;2022-10-29T11:27:26;95992.03;;;32.62;21.43
9521;BME280;4798;41.574;23.734;2022-10-29T11:30:02;95989.91;;;33.27;21.49
9521;BME280;4798;41.574;23.734;2022-10-29T11:32:40;95969.13;;;33.18;21.25
9521;BME280;4798;41.574;23.734;2022-10-29T11:35:16;95966.53;;;33.70;21.52
9521;BME280;4798;41.574;23.734;2022-10-29T11:37:51;95966.69;;;34.55;20.05
9521;BME280;4798;41.574;23.734;2022-10-29T11:40:31;95963.28;;;33.85;21.54
9521;BME280;4798;41.574;23.734;2022-10-29T11:43:01;95956.28;;;35.11;21.05
9521;BME280;4798;41.574;23.734;2022-10-29T11:45:54;95774.28;;;33.38;20.67
9521;BME280;4798;41.574;23.734;2022-10-29T11:48:32;95953.25;;;33.54;20.85
9521;BME280;4798;41.574;23.734;2022-10-29T11:51:12;95946.88;;;32.74;21.26
9521;BME280;4798;41.574;23.734;2022-10-29T11:53:54;95933.13;;;33.71;21.75
9521;BME280;4798;41.574;23.734;2022-10-29T11:56:32;95939.72;;;33.84;20.92
9521;BME280;4798;41.574;23.734;2022-10-29T11:59:09;95944.97;;;32.50;22.17
9521;BME280;4798;41.574;23.734;2022-10-29T12:01:51;95937.53;;;31.87;22.50
9521;BME280;4798;41.574;23.734;2022-10-29T12:04:25;95940.19;;;32.86;21.71
9521;BME280;4798;41.574;23.734;2022-10-29T12:07:13;95936.00;;;33.57;20.16
9521;BME280;4798;41.574;23.734;2022-10-29T12:10:03;95912.50;;;32.03;21.24
9521;BME280;4798;41.574;23.734;2022-10-29T12:12:43;95917.53;;;33.51;20.66
9521;BME280;4798;41.574;23.734;2022-10-29T12:15:22;95923.84;;;32.05;21.01
9521;BME280;4798;41.574;23.734;2022-10-29T12:18:01;95924.97;;;32.63;21.09
9521;BME280;4798;41.574;23.734;2022-10-29T12:20:36;95915.03;;;32.98;21.59
9521;BME280;4798;41.574;23.734;2022-10-29T12:23:18;95893.94;;;32.74;20.91
9521;BME280;4798;41.574;23.734;2022-10-29T12:26:02;95905.03;;;32.28;20.80
9521;BME280;4798;41.574;23.734;2022-10-29T12:28:40;95904.53;;;33.58;20.61
9521;BME280;4798;41.574;23.734;2022-10-29T12:31:22;95900.81;;;34.71;19.50
9521;BME280;4798;41.574;23.734;2022-10-29T12:34:00;95892.94;;;34.73;19.72
9521;BME280;4798;41.574;23.734;2022-10-29T12:36:37;95886.88;;;33.52;20.15
9521;BME280;4798;41.574;23.734;2022-10-29T12:39:13;95885.66;;;33.60;20.57
9521;BME280;4798;41.574;23.734;2022-10-29T12:41:46;95864.44;;;32.95;21.04
9521;BME280;4798;41.574;23.734;2022-10-29T12:44:21;95883.56;;;33.78;20.87
9521;BME280;4798;41.574;23.734;2022-10-29T12:46:56;95885.34;;;34.06;19.96
9521;BME280;4798;41.574;23.734;2022-10-29T12:49:38;95871.13;;;33.63;19.89
9521;BME280;4798;41.574;23.734;2022-10-29T12:52:14;95881.53;;;32.13;20.47
9521;BME280;4798;41.574;23.734;2022-10-29T12:54:45;95879.16;;;31.69;21.05
9521;BME280;4798;41.574;23.734;2022-10-29T12:57:26;95872.84;;;32.46;20.59
9521;BME280;4798;41.574;23.734;2022-10-29T12:59:56;95859.38;;;34.04;20.29
9521;BME280;4798;41.574;23.734;2022-10-29T13:02:41;95844.38;;;34.86;19.96
9521;BME280;4798;41.574;23.734;2022-10-29T13:05:18;95856.56;;;34.55;18.38
9521;BME280;4798;41.574;23.734;2022-10-29T13:10:54;95860.84;;;33.02;20.33
9521;BME280;4798;41.574;23.734;2022-10-29T13:13:49;95859.53;;;32.30;20.46
9521;BME280;4798;41.574;23.734;2022-10-29T13:16:22;95846.19;;;32.53;20.42
9521;BME280;4798;41.574;23.734;2022-10-29T13:19:06;95855.44;;;32.84;20.00
9521;BME280;4798;41.574;23.734;2022-10-29T13:21:56;95852.06;;;32.45;20.82
9521;BME280;4798;41.574;23.734;2022-10-29T13:24:26;95835.31;;;32.08;20.66
9521;BME280;4798;41.574;23.734;2022-10-29T13:26:59;95849.38;;;32.17;20.58
9521;BME280;4798;41.574;23.734;2022-10-29T13:29:48;95842.34;;;32.01;20.63
9521;BME280;4798;41.574;23.734;2022-10-29T13:32:33;95852.16;;;31.85;20.73
9521;BME280;4798;41.574;23.734;2022-10-29T13:35:04;95826.69;;;31.74;20.88
9521;BME280;4798;41.574;23.734;2022-10-29T13:37:55;95839.28;;;33.00;20.07
9521;BME280;4798;41.574;23.734;2022-10-29T13:40:42;95850.50;;;33.34;20.31
9521;BME280;4798;41.574;23.734;2022-10-29T13:43:22;95846.72;;;33.07;19.41
9521;BME280;4798;41.574;23.734;2022-10-29T13:46:01;95840.75;;;32.25;20.51
9521;BME280;4798;41.574;23.734;2022-10-29T13:48:32;95838.44;;;31.74;20.79
9521;BME280;4798;41.574;23.734;2022-10-29T13:51:05;95804.00;;;31.70;21.01